Accueil
METAR-TAF:

METAR-TAF

Aéroports :

Huesca, Espagne

Aéroport de Huesca-Pyrénées

latitude: 42-04-32N, longitude: 0-18-58W, altitude: 539 m

Observation

Le bulletin a été fait il y a 35 minutes, à 18:00 UTC
Vent 15 kt de ouest
Température 3°C
Humidité 87%
Pression 1021 hPa
Visibilité 10 km ou plus

METAR: LEHC 161800Z AUTO 28015KT 9999 NCD 03/01 Q1021

Heure: 19:35 (18:35 UTC)

Prévision

Le bulletin a été fait il y a 10 heures et 35 minutes, à 08:00 UTC
Prévision valable du 16 à 09 UTC au 17 à 09 UTC
Vent 14 kt de nord-ouest
Visibilité 10 km ou plus
Quelques nuages à une hauteur de 3000 ft
Evoluant progressivement
du 16 à 20 UTC au 16 à 23 UTC
Vent 6 kt de ouest/nord-ouest

TAF: LEHC 160800Z 1609/1709 31014KT 9999 FEW030 TX10/1613Z TNM01/1707Z BECMG 1620/1623 30006KT

Observations et prévisions météorologiques de plus de 4000 aéroports (messages METAR et TAF).

Les stations disponibles sont représentées par des disques jaunes et rouges sur la carte.

Passer la souris dessus pour voir le nom de la station.

Cliquer dessus pour voir les observations et prévisions météorologiques.

Pour changer de carte: cliquez sur les boutons verts avec une croix noire pour zoomer, sur le bouton vert avec un tiret pour effectuer un zoom arrière, ou sur les flèches vertes pour les cartes adjacentes.


METAR-TAF: